createdAt,value
2022-08-25T00:00:15.893Z,169.17
2022-08-25T00:02:54.101Z,168.17
2022-08-25T00:05:27.735Z,167.63
2022-08-25T00:07:57.366Z,167.60
2022-08-25T00:10:25.442Z,168.47
2022-08-25T00:12:54.837Z,167.90
2022-08-25T00:15:23.821Z,169.30
2022-08-25T00:17:52.078Z,169.50
2022-08-25T00:20:20.107Z,168.63
2022-08-25T00:22:48.983Z,169.30
2022-08-25T00:25:17.015Z,168.60
2022-08-25T00:27:45.819Z,167.70
2022-08-25T00:30:16.928Z,168.23
2022-08-25T00:32:55.012Z,168.37
2022-08-25T00:35:25.953Z,168.07
2022-08-25T00:37:53.894Z,168.90
2022-08-25T00:40:22.148Z,168.53
2022-08-25T00:42:50.283Z,169.37
2022-08-25T00:45:19.663Z,168.57
2022-08-25T00:47:47.524Z,168.87
2022-08-25T00:50:17.187Z,169.03
2022-08-25T00:52:50.279Z,168.63
2022-08-25T00:55:22.247Z,168.47
2022-08-25T00:57:56.315Z,167.63
2022-08-25T01:00:29.325Z,167.33
2022-08-25T01:02:57.865Z,168.10
2022-08-25T01:05:28.206Z,167.93
2022-08-25T01:07:58.710Z,169.13
2022-08-25T01:10:28.649Z,168.90
2022-08-25T01:13:03.699Z,168.43
2022-08-25T01:15:34.186Z,168.93
2022-08-25T01:18:05.876Z,168.50
2022-08-25T01:20:34.617Z,167.90
2022-08-25T01:23:04.046Z,167.93
2022-08-25T01:25:40.502Z,168.43
2022-08-25T01:28:08.376Z,168.57
2022-08-25T01:30:36.858Z,168.87
2022-08-25T01:33:05.712Z,168.73
2022-08-25T01:35:33.769Z,168.13
2022-08-25T01:38:04.373Z,167.70
2022-08-25T01:40:33.021Z,168.40
2022-08-25T01:43:12.935Z,169.13
2022-08-25T01:45:43.206Z,167.90
2022-08-25T01:48:12.939Z,167.80
2022-08-25T01:50:41.497Z,168.97
2022-08-25T01:53:15.380Z,169.07
2022-08-25T01:55:52.796Z,169.00
2022-08-25T01:58:23.652Z,168.80
2022-08-25T02:00:54.246Z,168.57
2022-08-25T02:03:22.198Z,167.90
2022-08-25T02:05:50.040Z,168.67
2022-08-25T02:08:20.348Z,168.63
2022-08-25T02:10:48.161Z,169.13
2022-08-25T02:13:17.493Z,167.83
2022-08-25T02:15:48.624Z,168.27
2022-08-25T02:18:17.144Z,167.77
2022-08-25T02:20:45.549Z,167.93
2022-08-25T02:23:13.785Z,168.93
2022-08-25T02:25:44.406Z,169.10
2022-08-25T02:28:12.492Z,168.77
2022-08-25T02:30:42.378Z,169.17
2022-08-25T02:33:10.867Z,169.10
2022-08-25T02:35:39.369Z,167.73
2022-08-25T02:38:07.764Z,169.40
2022-08-25T02:40:35.866Z,168.43
2022-08-25T02:43:05.691Z,169.43
2022-08-25T02:45:33.641Z,168.80
2022-08-25T02:48:01.740Z,169.30
2022-08-25T02:50:29.638Z,169.13
2022-08-25T02:52:57.483Z,168.83
2022-08-25T02:55:25.412Z,168.70
2022-08-25T02:57:53.201Z,169.20
2022-08-25T03:00:23.240Z,168.87
2022-08-25T03:02:51.103Z,169.07
2022-08-25T03:05:19.106Z,169.17
2022-08-25T03:07:46.897Z,169.17
2022-08-25T03:10:18.680Z,168.90
2022-08-25T03:12:47.579Z,167.67
2022-08-25T03:15:17.761Z,168.80
2022-08-25T03:17:49.353Z,169.13
2022-08-25T03:20:19.614Z,169.27
2022-08-25T03:22:47.520Z,169.10
2022-08-25T03:25:33.256Z,168.13
2022-08-25T03:28:01.833Z,168.73
2022-08-25T03:30:30.330Z,169.50
2022-08-25T03:32:59.512Z,168.93
2022-08-25T03:35:27.577Z,168.73
2022-08-25T03:37:57.649Z,168.63
2022-08-25T03:40:26.514Z,168.77
2022-08-25T03:42:55.021Z,168.90
2022-08-25T03:45:23.562Z,168.93
2022-08-25T03:47:52.900Z,168.33
2022-08-25T03:50:24.022Z,167.97
2022-08-25T03:52:53.687Z,168.53
2022-08-25T03:55:22.797Z,169.27
2022-08-25T03:57:50.653Z,169.37
2022-08-25T04:00:18.809Z,169.00
2022-08-25T04:02:47.046Z,169.30
2022-08-25T04:05:15.912Z,168.33
2022-08-25T04:07:45.272Z,168.33
2022-08-25T04:10:13.349Z,169.83
2022-08-25T04:12:41.713Z,168.40
2022-08-25T04:15:10.567Z,168.67
2022-08-25T04:17:39.622Z,168.73
2022-08-25T04:20:09.744Z,168.90
2022-08-25T04:22:38.374Z,168.60
2022-08-25T04:25:08.730Z,168.53
2022-08-25T04:27:38.094Z,167.47
2022-08-25T04:30:07.905Z,169.87
2022-08-25T04:32:36.609Z,168.37
2022-08-25T04:35:05.336Z,168.27
2022-08-25T04:37:33.969Z,168.17
2022-08-25T04:40:02.631Z,167.93
2022-08-25T04:42:31.797Z,169.03
2022-08-25T04:45:00.187Z,170.23
2022-08-25T04:47:28.264Z,169.43
2022-08-25T04:49:56.960Z,169.13
2022-08-25T04:52:24.745Z,169.67
2022-08-25T04:54:52.744Z,168.37
2022-08-25T04:57:20.614Z,168.90
2022-08-25T04:59:50.002Z,169.33
2022-08-25T05:02:17.789Z,169.33
2022-08-25T05:04:45.634Z,169.07
2022-08-25T05:07:13.564Z,169.30
2022-08-25T05:09:41.481Z,168.73
2022-08-25T05:12:10.049Z,168.83
2022-08-25T05:14:40.304Z,169.50
2022-08-25T05:17:10.400Z,169.00
2022-08-25T05:19:38.418Z,168.97
2022-08-25T05:22:06.648Z,168.23
2022-08-25T05:24:34.566Z,169.23
2022-08-25T05:27:03.823Z,167.97
2022-08-25T05:29:31.929Z,167.57
2022-08-25T05:31:59.763Z,168.63
2022-08-25T05:34:30.054Z,169.20
2022-08-25T05:36:59.989Z,168.37
2022-08-25T05:39:28.014Z,168.60
2022-08-25T05:41:55.833Z,168.30
2022-08-25T05:44:23.633Z,168.30
2022-08-25T05:46:52.390Z,169.57
2022-08-25T05:49:20.631Z,168.20
2022-08-25T05:51:49.799Z,168.00
2022-08-25T05:54:17.603Z,169.00
2022-08-25T05:56:46.281Z,169.43
2022-08-25T05:59:14.226Z,169.37
2022-08-25T06:01:59.336Z,168.87
2022-08-25T06:04:27.118Z,168.70
2022-08-25T06:06:56.313Z,169.03
2022-08-25T06:09:24.647Z,169.17
2022-08-25T06:11:54.982Z,168.57
2022-08-25T06:14:23.685Z,169.17
2022-08-25T06:16:52.045Z,169.57
2022-08-25T06:19:21.080Z,170.07
2022-08-25T06:21:49.272Z,168.73
2022-08-25T06:24:18.397Z,169.03
2022-08-25T06:26:46.321Z,169.07
2022-08-25T06:29:14.893Z,170.27
2022-08-25T06:31:44.003Z,168.00
2022-08-25T06:34:12.239Z,169.03
2022-08-25T06:36:40.775Z,169.50
2022-08-25T06:39:10.639Z,170.20
2022-08-25T06:41:40.143Z,168.80
2022-08-25T06:44:08.040Z,168.90
2022-08-25T06:46:37.100Z,169.97
2022-08-25T06:49:05.861Z,169.53
2022-08-25T06:51:35.811Z,170.07
2022-08-25T06:54:04.717Z,168.90
2022-08-25T06:56:32.805Z,170.33
2022-08-25T06:59:04.209Z,169.87
2022-08-25T07:01:32.509Z,169.40
2022-08-25T07:04:02.964Z,170.17
2022-08-25T07:06:35.252Z,168.77
2022-08-25T07:09:04.581Z,169.07
2022-08-25T07:11:34.233Z,169.60
2022-08-25T07:14:04.129Z,168.27
2022-08-25T07:16:32.963Z,169.27
2022-08-25T07:19:01.829Z,169.03
2022-08-25T07:21:33.605Z,168.30
2022-08-25T07:24:05.830Z,168.33
2022-08-25T07:26:38.550Z,168.33
2022-08-25T07:29:15.525Z,168.13
2022-08-25T07:31:43.573Z,168.70
2022-08-25T07:34:29.425Z,169.03
2022-08-25T07:36:58.620Z,169.40
2022-08-25T07:39:29.092Z,168.90
2022-08-25T07:41:57.588Z,169.37
2022-08-25T07:44:28.083Z,168.60
2022-08-25T07:46:56.616Z,168.57
2022-08-25T07:49:26.156Z,168.33
2022-08-25T07:52:05.755Z,168.10
2022-08-25T07:54:35.305Z,168.20
2022-08-25T07:57:04.056Z,168.40
2022-08-25T07:59:39.176Z,167.70
2022-08-25T08:02:09.089Z,166.43
2022-08-25T08:04:48.610Z,168.07
2022-08-25T08:07:18.542Z,167.17
2022-08-25T08:09:50.438Z,167.27
2022-08-25T08:12:24.248Z,167.57
2022-08-25T08:14:53.408Z,168.53
2022-08-25T08:17:21.802Z,167.83
2022-08-25T08:19:49.642Z,168.30
2022-08-25T08:22:17.567Z,166.83
2022-08-25T08:24:54.415Z,168.20
2022-08-25T08:27:23.042Z,167.70
2022-08-25T08:29:50.874Z,166.67
2022-08-25T08:32:21.071Z,167.40
2022-08-25T08:34:53.580Z,168.10
2022-08-25T08:37:23.094Z,167.27
2022-08-25T08:39:52.522Z,167.77
2022-08-25T08:42:37.513Z,167.87
2022-08-25T08:45:21.121Z,167.93
2022-08-25T08:48:03.541Z,167.87
2022-08-25T08:50:43.762Z,167.77
2022-08-25T08:53:15.516Z,167.40
2022-08-25T08:55:48.351Z,166.43
2022-08-25T08:58:26.114Z,167.93
2022-08-25T09:00:58.169Z,167.80
2022-08-25T09:03:35.664Z,167.97
2022-08-25T09:06:07.739Z,167.03
2022-08-25T09:08:36.119Z,167.97
2022-08-25T09:11:11.057Z,167.80
2022-08-25T09:14:09.345Z,167.67
2022-08-25T09:16:58.100Z,167.50
2022-08-25T09:19:36.961Z,167.83
2022-08-25T09:22:35.855Z,167.93
2022-08-25T09:25:11.878Z,167.83
2022-08-25T09:27:46.486Z,168.60
2022-08-25T09:30:16.993Z,167.30
2022-08-25T09:32:48.950Z,167.40
2022-08-25T09:35:26.392Z,168.33
2022-08-25T09:37:58.892Z,167.83
2022-08-25T09:40:28.720Z,168.03
2022-08-25T09:43:01.074Z,167.00
2022-08-25T09:45:43.442Z,167.73
2022-08-25T09:48:26.770Z,167.20
2022-08-25T09:51:03.369Z,168.10
2022-08-25T09:53:33.866Z,167.90
2022-08-25T09:56:06.709Z,167.70
2022-08-25T09:58:34.945Z,166.87
2022-08-25T10:01:14.189Z,167.43
2022-08-25T10:04:00.107Z,167.50
2022-08-25T10:06:36.564Z,167.53
2022-08-25T10:09:06.937Z,167.97
2022-08-25T10:11:39.942Z,167.70
2022-08-25T10:14:18.571Z,167.70
2022-08-25T10:16:47.730Z,166.70
2022-08-25T10:19:25.493Z,167.60
2022-08-25T10:22:10.939Z,167.50
2022-08-25T10:24:41.142Z,167.77
2022-08-25T10:27:20.917Z,167.80
2022-08-25T10:30:14.719Z,167.60
2022-08-25T10:32:58.158Z,167.53
2022-08-25T10:35:32.169Z,168.07
2022-08-25T10:38:13.305Z,167.63
2022-08-25T10:40:57.756Z,168.30
2022-08-25T10:43:33.769Z,166.97
2022-08-25T10:46:07.237Z,167.37
2022-08-25T10:48:50.206Z,168.03
2022-08-25T10:51:33.664Z,167.93
2022-08-25T10:54:11.113Z,167.03
2022-08-25T10:56:41.881Z,168.80
2022-08-25T10:59:31.588Z,167.63
2022-08-25T11:02:25.124Z,168.20
2022-08-25T11:05:01.557Z,166.97
2022-08-25T11:07:34.861Z,168.13
2022-08-25T11:10:10.591Z,167.87
2022-08-25T11:12:42.070Z,167.20
2022-08-25T11:15:15.253Z,167.43
2022-08-25T11:17:50.294Z,167.40
2022-08-25T11:20:26.845Z,168.57
2022-08-25T11:23:08.923Z,167.33
2022-08-25T11:25:44.419Z,167.83
2022-08-25T11:28:15.730Z,168.00
2022-08-25T11:30:44.370Z,167.53
2022-08-25T11:33:15.514Z,167.93
2022-08-25T11:35:50.997Z,168.43
2022-08-25T11:38:32.690Z,167.63
2022-08-25T11:41:11.706Z,167.47
2022-08-25T11:43:57.115Z,167.30
2022-08-25T11:46:41.966Z,168.20
2022-08-25T11:49:37.372Z,167.83
2022-08-25T11:52:32.332Z,168.03
2022-08-25T11:55:11.808Z,167.63
2022-08-25T11:57:41.760Z,166.90
2022-08-25T12:00:14.597Z,167.87
2022-08-25T12:02:44.819Z,168.50
2022-08-25T12:05:53.286Z,167.90
2022-08-25T12:08:51.011Z,167.97
2022-08-25T12:12:00.382Z,168.90
2022-08-25T12:14:45.576Z,167.00
2022-08-25T12:17:25.937Z,169.20
2022-08-25T12:20:00.332Z,167.90
2022-08-25T12:22:55.074Z,166.50
2022-08-25T12:25:48.405Z,168.17
2022-08-25T12:28:35.654Z,167.83
2022-08-25T12:31:16.686Z,167.67
2022-08-25T12:34:01.864Z,167.63
2022-08-25T12:36:31.649Z,167.43
2022-08-25T12:39:24.705Z,167.10
2022-08-25T12:41:58.847Z,167.20
2022-08-25T12:44:43.353Z,168.23
2022-08-25T12:47:31.657Z,167.80
2022-08-25T12:50:35.180Z,167.77
2022-08-25T12:53:12.387Z,167.57
2022-08-25T12:55:45.246Z,167.67
2022-08-25T12:58:14.086Z,166.80
2022-08-25T13:01:06.901Z,167.87
2022-08-25T13:04:09.916Z,168.00
2022-08-25T13:06:54.678Z,167.50
2022-08-25T13:09:50.606Z,168.00
2022-08-25T13:12:24.788Z,167.93
2022-08-25T13:14:55.110Z,167.57
2022-08-25T13:17:27.793Z,169.23
2022-08-25T13:20:14.555Z,167.83
2022-08-25T13:22:45.640Z,167.03
2022-08-25T13:25:17.879Z,167.67
2022-08-25T13:27:52.580Z,167.70
2022-08-25T13:30:26.099Z,167.77
2022-08-25T13:32:53.966Z,168.07
2022-08-25T13:35:32.165Z,168.17
2022-08-25T13:38:13.009Z,167.63
2022-08-25T13:40:41.366Z,168.23
2022-08-25T13:43:13.903Z,168.07
2022-08-25T13:45:45.959Z,167.90
2022-08-25T13:48:31.828Z,168.57
2022-08-25T13:51:09.909Z,168.17
2022-08-25T13:53:39.638Z,167.50
2022-08-25T13:56:08.480Z,166.70
2022-08-25T13:58:44.667Z,167.27
2022-08-25T14:01:23.590Z,168.87
2022-08-25T14:04:31.828Z,167.17
2022-08-25T14:07:34.000Z,167.57
2022-08-25T14:10:07.484Z,166.90
2022-08-25T14:12:41.786Z,168.10
2022-08-25T14:15:29.301Z,169.13
2022-08-25T14:18:05.976Z,167.77
2022-08-25T14:20:36.308Z,168.43
2022-08-25T14:23:09.977Z,166.93
2022-08-25T14:25:40.592Z,167.50
2022-08-25T14:28:14.442Z,167.90
2022-08-25T14:30:46.896Z,167.80
2022-08-25T14:33:16.723Z,168.17
2022-08-25T14:35:48.230Z,167.70
2022-08-25T14:38:18.432Z,168.63
2022-08-25T14:40:46.349Z,168.10
2022-08-25T14:43:15.788Z,168.00
2022-08-25T14:45:45.990Z,167.30
2022-08-25T14:48:21.306Z,167.50
2022-08-25T14:50:49.185Z,166.20
2022-08-25T14:53:20.019Z,167.93
2022-08-25T14:55:49.160Z,168.00
2022-08-25T14:58:26.025Z,167.90
2022-08-25T15:00:55.239Z,168.53
2022-08-25T15:03:29.366Z,167.63
2022-08-25T15:05:57.436Z,168.07
2022-08-25T15:08:44.697Z,167.97
2022-08-25T15:11:13.300Z,167.33
2022-08-25T15:13:41.766Z,167.13
2022-08-25T15:16:10.334Z,168.03
2022-08-25T15:18:38.707Z,167.53
2022-08-25T15:21:06.830Z,168.10
2022-08-25T15:23:36.028Z,168.07
2022-08-25T15:26:05.343Z,167.67
2022-08-25T15:28:33.196Z,168.60
2022-08-25T15:31:01.004Z,168.20
2022-08-25T15:33:28.825Z,167.57
2022-08-25T15:35:57.200Z,168.20
2022-08-25T15:38:26.129Z,168.27
2022-08-25T15:40:55.897Z,168.13
2022-08-25T15:43:26.012Z,168.47
2022-08-25T15:45:53.879Z,168.30
2022-08-25T15:48:21.962Z,167.77
2022-08-25T15:50:55.059Z,167.97
2022-08-25T15:53:25.842Z,167.43
2022-08-25T15:55:56.920Z,168.73
2022-08-25T15:58:25.404Z,167.53
2022-08-25T16:00:56.279Z,168.17
2022-08-25T16:03:24.493Z,167.20
2022-08-25T16:05:52.294Z,168.10
2022-08-25T16:08:20.375Z,168.27
2022-08-25T16:10:48.363Z,167.67
2022-08-25T16:13:18.949Z,167.63
2022-08-25T16:15:54.080Z,168.63
2022-08-25T16:18:23.033Z,168.40
2022-08-25T16:20:51.590Z,168.73
2022-08-25T16:23:20.480Z,167.90
2022-08-25T16:25:49.476Z,168.20
2022-08-25T16:28:24.380Z,168.40
2022-08-25T16:30:53.279Z,168.07
2022-08-25T16:33:21.544Z,168.03
2022-08-25T16:35:49.470Z,168.50
2022-08-25T16:38:17.688Z,168.10
2022-08-25T16:40:46.993Z,167.83
2022-08-25T16:43:15.630Z,168.37
2022-08-25T16:45:44.826Z,167.43
2022-08-25T16:48:12.665Z,168.57
2022-08-25T16:50:40.840Z,168.10
2022-08-25T16:53:34.749Z,168.33
2022-08-25T16:56:03.071Z,167.67
2022-08-25T16:58:31.200Z,168.40
2022-08-25T17:01:07.256Z,168.50
2022-08-25T17:03:38.243Z,168.07
2022-08-25T17:06:07.439Z,167.90
2022-08-25T17:08:37.111Z,168.23
2022-08-25T17:11:07.839Z,167.80
2022-08-25T17:13:37.585Z,168.17
2022-08-25T17:16:07.767Z,167.13
2022-08-25T17:18:36.412Z,167.90
2022-08-25T17:21:06.883Z,168.10
2022-08-25T17:23:36.661Z,167.80
2022-08-25T17:26:06.018Z,168.10
2022-08-25T17:28:34.670Z,168.37
2022-08-25T17:31:02.864Z,168.33
2022-08-25T17:33:32.139Z,167.53
2022-08-25T17:36:00.252Z,168.27
2022-08-25T17:38:30.084Z,168.00
2022-08-25T17:41:03.527Z,167.97
2022-08-25T17:43:33.763Z,167.70
2022-08-25T17:46:02.149Z,167.47
2022-08-25T17:48:34.073Z,168.37
2022-08-25T17:51:02.561Z,167.93
2022-08-25T17:53:30.669Z,168.20
2022-08-25T17:56:01.365Z,169.03
2022-08-25T17:58:30.625Z,168.97
2022-08-25T18:00:59.049Z,168.23
2022-08-25T18:03:27.295Z,168.70
2022-08-25T18:05:57.053Z,168.37
2022-08-25T18:08:29.242Z,168.27
2022-08-25T18:11:04.560Z,166.77
2022-08-25T18:13:32.433Z,168.77
2022-08-25T18:16:00.445Z,167.70
2022-08-25T18:18:28.817Z,168.33
2022-08-25T18:20:57.949Z,169.03
2022-08-25T18:23:27.879Z,168.67
2022-08-25T18:26:00.977Z,168.53
2022-08-25T18:28:29.242Z,169.33
2022-08-25T18:30:57.153Z,168.93
2022-08-25T18:33:25.440Z,168.90
2022-08-25T18:35:59.847Z,167.93
2022-08-25T18:38:44.980Z,167.17
2022-08-25T18:41:13.492Z,168.23
2022-08-25T18:43:42.097Z,167.73
2022-08-25T18:46:10.096Z,167.50
2022-08-25T18:48:38.482Z,167.70
2022-08-25T18:51:10.804Z,168.57
2022-08-25T18:53:51.030Z,168.33
2022-08-25T18:56:19.642Z,168.60
2022-08-25T18:58:48.276Z,168.33
2022-08-25T19:01:18.362Z,169.57
2022-08-25T19:03:46.756Z,167.93
2022-08-25T19:06:17.370Z,167.73
2022-08-25T19:08:47.652Z,168.37
2022-08-25T19:11:16.470Z,167.57
2022-08-25T19:13:44.901Z,167.43
2022-08-25T19:16:17.778Z,167.97
2022-08-25T19:18:48.795Z,167.77
2022-08-25T19:21:20.502Z,168.33
2022-08-25T19:23:50.810Z,168.10
2022-08-25T19:26:20.740Z,167.83
2022-08-25T19:28:50.489Z,169.00
2022-08-25T19:31:19.264Z,167.67
2022-08-25T19:33:47.379Z,168.47
2022-08-25T19:36:16.301Z,167.60
2022-08-25T19:38:45.824Z,167.40
2022-08-25T19:41:15.162Z,167.80
2022-08-25T19:43:55.021Z,167.97
2022-08-25T19:46:24.914Z,168.57
2022-08-25T19:48:52.796Z,167.40
2022-08-25T19:51:21.891Z,168.07
2022-08-25T19:53:54.780Z,168.60
2022-08-25T19:56:23.700Z,168.13
2022-08-25T19:58:52.038Z,168.17
2022-08-25T20:01:19.961Z,168.47
2022-08-25T20:03:47.801Z,169.30
2022-08-25T20:06:16.167Z,168.23
2022-08-25T20:08:44.688Z,167.97
2022-08-25T20:11:14.669Z,168.77
2022-08-25T20:13:42.461Z,169.70
2022-08-25T20:16:10.344Z,168.30
2022-08-25T20:18:38.332Z,168.53
2022-08-25T20:21:10.872Z,168.87
2022-08-25T20:23:57.206Z,167.93
2022-08-25T20:26:26.889Z,168.27
2022-08-25T20:28:55.013Z,169.10
2022-08-25T20:31:25.054Z,167.67
2022-08-25T20:33:55.509Z,168.77
2022-08-25T20:36:28.145Z,167.47
2022-08-25T20:38:56.009Z,168.40
2022-08-25T20:41:28.209Z,168.77
2022-08-25T20:43:56.460Z,168.07
2022-08-25T20:46:25.843Z,167.83
2022-08-25T20:48:53.658Z,168.20
2022-08-25T20:51:23.534Z,169.23
2022-08-25T20:53:51.453Z,169.40
2022-08-25T20:56:20.318Z,169.00
2022-08-25T20:58:51.378Z,168.60
2022-08-25T21:01:23.050Z,168.53
2022-08-25T21:03:51.670Z,168.13
2022-08-25T21:06:19.491Z,168.90
2022-08-25T21:08:48.680Z,170.13
2022-08-25T21:11:18.364Z,169.77
2022-08-25T21:13:46.704Z,168.93
2022-08-25T21:16:17.792Z,169.57
2022-08-25T21:18:48.117Z,169.43
2022-08-25T21:21:16.471Z,168.10
2022-08-25T21:23:48.014Z,168.90
2022-08-25T21:26:20.092Z,169.50
2022-08-25T21:28:48.954Z,168.93
2022-08-25T21:31:20.463Z,169.60
2022-08-25T21:33:49.822Z,168.50
2022-08-25T21:36:19.462Z,169.53
2022-08-25T21:38:49.080Z,168.37
2022-08-25T21:41:19.479Z,170.40
2022-08-25T21:43:48.902Z,169.47
2022-08-25T21:46:20.022Z,168.97
2022-08-25T21:48:49.617Z,169.10
2022-08-25T21:51:19.351Z,170.07
2022-08-25T21:53:47.972Z,169.93
2022-08-25T21:56:17.269Z,170.23
2022-08-25T21:58:49.177Z,169.03
2022-08-25T22:01:20.491Z,170.27
2022-08-25T22:03:50.589Z,169.50
2022-08-25T22:06:21.704Z,169.57
2022-08-25T22:08:49.703Z,169.10
2022-08-25T22:11:18.330Z,170.60
2022-08-25T22:13:48.474Z,169.53
2022-08-25T22:16:20.183Z,170.97
2022-08-25T22:18:50.522Z,171.93
2022-08-25T22:21:20.351Z,171.23
2022-08-25T22:23:48.158Z,170.67
2022-08-25T22:26:16.273Z,170.97
2022-08-25T22:28:49.912Z,170.77
2022-08-25T22:31:21.033Z,170.77
2022-08-25T22:33:49.791Z,169.27
2022-08-25T22:36:18.881Z,170.53
2022-08-25T22:38:48.665Z,171.60
2022-08-25T22:41:21.348Z,170.47
2022-08-25T22:43:51.071Z,170.27
2022-08-25T22:46:22.037Z,170.70
2022-08-25T22:48:51.508Z,170.03
2022-08-25T22:51:21.579Z,170.80
2022-08-25T22:53:50.243Z,171.43
2022-08-25T22:56:29.563Z,169.93
2022-08-25T22:58:57.785Z,169.80
2022-08-25T23:01:27.081Z,170.83
2022-08-25T23:03:55.213Z,170.77
2022-08-25T23:06:25.612Z,171.10
2022-08-25T23:08:54.272Z,170.63
2022-08-25T23:11:23.795Z,171.17
2022-08-25T23:13:54.593Z,171.10
2022-08-25T23:16:23.427Z,169.93
2022-08-25T23:18:53.637Z,170.40
2022-08-25T23:21:41.338Z,171.20
2022-08-25T23:24:11.191Z,169.70
2022-08-25T23:26:42.496Z,170.60
2022-08-25T23:29:18.603Z,170.57
2022-08-25T23:31:47.908Z,170.07
2022-08-25T23:34:17.556Z,170.67
2022-08-25T23:36:45.459Z,170.27
2022-08-25T23:39:14.029Z,170.80
2022-08-25T23:41:41.916Z,170.40
2022-08-25T23:44:11.599Z,170.20
2022-08-25T23:46:45.671Z,170.03
2022-08-25T23:49:18.700Z,171.70
2022-08-25T23:51:47.960Z,170.80
2022-08-25T23:54:17.253Z,170.70
2022-08-25T23:56:52.471Z,170.70
2022-08-25T23:59:24.751Z,170.33
